createdAt,value
2022-11-29T00:00:08.988Z,4.35
2022-11-29T00:05:10.054Z,4.46
2022-11-29T00:10:09.363Z,4.94
2022-11-29T00:15:06.233Z,4.50
2022-11-29T00:20:03.116Z,4.39
2022-11-29T00:25:00.613Z,4.39
2022-11-29T00:29:57.262Z,4.69
2022-11-29T00:34:53.966Z,4.91
2022-11-29T00:39:50.752Z,4.74
2022-11-29T00:44:48.506Z,4.67
2022-11-29T00:49:45.115Z,4.40
2022-11-29T00:54:45.056Z,4.55
2022-11-29T00:59:42.021Z,4.96
2022-11-29T01:04:39.262Z,4.93
2022-11-29T01:09:37.267Z,5.03
2022-11-29T01:14:34.021Z,5.18
2022-11-29T01:19:30.637Z,5.29
2022-11-29T01:24:29.171Z,5.05
2022-11-29T01:29:25.885Z,4.89
2022-11-29T01:34:25.055Z,4.77
2022-11-29T01:39:21.629Z,4.80
2022-11-29T01:44:37.178Z,4.62
2022-11-29T01:49:39.023Z,4.39
2022-11-29T01:54:39.077Z,4.66
2022-11-29T01:59:37.154Z,4.74
2022-11-29T02:04:35.471Z,4.74
2022-11-29T02:09:32.043Z,4.74
2022-11-29T02:14:43.703Z,5.19
2022-11-29T02:19:53.259Z,5.08
2022-11-29T02:24:57.524Z,5.03
2022-11-29T02:30:12.239Z,4.78
2022-11-29T02:35:19.158Z,5.15
2022-11-29T02:40:34.786Z,4.69
2022-11-29T02:45:39.490Z,4.72
2022-11-29T02:50:41.832Z,5.20
2022-11-29T02:55:42.006Z,5.01
2022-11-29T03:00:42.012Z,4.86
2022-11-29T03:05:44.186Z,4.78
2022-11-29T03:10:50.917Z,4.86
2022-11-29T03:15:52.855Z,4.48
2022-11-29T03:20:57.788Z,4.19
2022-11-29T03:26:02.091Z,4.13
2022-11-29T03:31:01.524Z,4.04
2022-11-29T03:36:01.728Z,3.92
2022-11-29T03:41:05.248Z,4.00
2022-11-29T03:46:05.624Z,3.90
2022-11-29T03:51:05.700Z,4.21
2022-11-29T03:56:04.943Z,4.04
2022-11-29T04:01:18.988Z,4.48
2022-11-29T04:06:31.843Z,4.10
2022-11-29T04:12:01.560Z,4.13
2022-11-29T04:17:17.652Z,4.18
2022-11-29T04:22:27.932Z,4.48
2022-11-29T04:27:41.701Z,4.61
2022-11-29T04:32:49.889Z,4.31
2022-11-29T04:37:57.888Z,4.43
2022-11-29T04:43:06.230Z,4.05
2022-11-29T04:48:10.283Z,4.38
2022-11-29T04:53:21.753Z,4.15
2022-11-29T04:58:22.805Z,4.10
2022-11-29T05:03:25.357Z,4.14
2022-11-29T05:08:27.622Z,4.28
2022-11-29T05:13:29.176Z,4.42
2022-11-29T05:18:32.495Z,4.90
2022-11-29T05:23:33.429Z,4.19
2022-11-29T05:28:35.427Z,4.00
2022-11-29T05:33:47.800Z,4.46
2022-11-29T05:38:55.497Z,4.59
2022-11-29T05:43:59.173Z,4.96
2022-11-29T05:49:00.680Z,4.95
2022-11-29T05:54:05.480Z,4.64
2022-11-29T05:59:04.786Z,4.91
2022-11-29T06:04:04.319Z,4.70
2022-11-29T06:09:05.897Z,4.68
2022-11-29T06:14:05.433Z,4.48
2022-11-29T06:19:20.056Z,4.48
2022-11-29T06:24:26.535Z,4.69
2022-11-29T06:29:27.869Z,4.63
2022-11-29T06:34:42.735Z,4.34
2022-11-29T06:39:40.576Z,4.40
2022-11-29T06:44:37.957Z,4.24
2022-11-29T06:49:39.023Z,4.56
2022-11-29T06:54:45.398Z,4.66
2022-11-29T06:59:51.249Z,4.44
2022-11-29T07:04:56.462Z,4.80
2022-11-29T07:09:58.060Z,4.59
2022-11-29T07:14:56.089Z,4.63
2022-11-29T07:20:00.277Z,4.38
2022-11-29T07:25:00.481Z,4.67
2022-11-29T07:30:17.851Z,4.62
2022-11-29T07:35:17.173Z,4.85
2022-11-29T07:40:15.215Z,4.47
2022-11-29T07:45:16.728Z,4.86
2022-11-29T07:50:13.929Z,4.54
2022-11-29T07:55:18.325Z,4.52
2022-11-29T08:00:17.297Z,4.47
2022-11-29T08:05:14.199Z,4.66
2022-11-29T08:10:12.187Z,4.78
2022-11-29T08:15:09.792Z,4.87
2022-11-29T08:20:08.803Z,4.88
2022-11-29T08:25:06.678Z,4.84
2022-11-29T08:30:03.449Z,5.06
2022-11-29T08:35:00.221Z,4.53
2022-11-29T08:39:58.517Z,4.82
2022-11-29T08:44:55.310Z,5.27
2022-11-29T08:50:01.261Z,5.05
2022-11-29T08:55:03.020Z,5.45
2022-11-29T09:00:02.153Z,5.02
2022-11-29T09:04:58.823Z,4.92
2022-11-29T09:09:55.539Z,4.67
2022-11-29T09:14:52.993Z,4.95
2022-11-29T09:19:52.172Z,5.13
2022-11-29T09:24:48.852Z,5.39
2022-11-29T09:29:45.452Z,5.06
2022-11-29T09:34:45.620Z,5.63
2022-11-29T09:39:44.970Z,5.75
2022-11-29T09:44:47.955Z,5.29
2022-11-29T09:49:56.881Z,5.73
2022-11-29T09:54:57.222Z,5.67
2022-11-29T09:59:56.253Z,5.83
2022-11-29T10:04:54.772Z,5.76
2022-11-29T10:09:56.648Z,5.80
2022-11-29T10:14:54.876Z,5.73
2022-11-29T10:19:55.119Z,5.32
2022-11-29T10:24:57.092Z,5.18
2022-11-29T10:29:54.090Z,5.32
2022-11-29T10:34:51.448Z,5.14
2022-11-29T10:39:49.516Z,5.58
2022-11-29T10:44:47.188Z,5.54
2022-11-29T10:49:44.456Z,5.53
2022-11-29T10:54:43.945Z,5.55
2022-11-29T10:59:42.592Z,5.21
2022-11-29T11:04:45.236Z,5.50
2022-11-29T11:09:47.310Z,5.31
2022-11-29T11:14:50.776Z,5.46
2022-11-29T11:19:54.433Z,5.71
2022-11-29T11:24:56.979Z,5.67
2022-11-29T11:29:54.103Z,5.57
2022-11-29T11:34:51.322Z,5.70
2022-11-29T11:39:49.726Z,5.50
2022-11-29T11:44:50.243Z,5.79
2022-11-29T11:49:48.931Z,5.46
2022-11-29T11:54:46.844Z,5.45
2022-11-29T11:59:47.497Z,5.54
2022-11-29T12:04:44.516Z,5.80
2022-11-29T12:09:47.599Z,5.70
2022-11-29T12:14:53.468Z,5.87
2022-11-29T12:19:58.159Z,6.04
2022-11-29T12:24:57.841Z,6.09
2022-11-29T12:29:56.449Z,6.00
2022-11-29T12:35:01.509Z,6.14
2022-11-29T12:40:06.806Z,6.54
2022-11-29T12:45:17.272Z,6.27
2022-11-29T12:50:19.328Z,6.13
2022-11-29T12:55:19.979Z,6.13
2022-11-29T13:00:18.823Z,6.08
2022-11-29T13:05:19.941Z,6.33
2022-11-29T13:10:27.036Z,6.14
2022-11-29T13:15:28.296Z,6.38
2022-11-29T13:20:38.961Z,6.21
2022-11-29T13:25:37.467Z,5.87
2022-11-29T13:30:35.711Z,6.24
2022-11-29T13:35:38.468Z,5.97
2022-11-29T13:40:37.428Z,5.84
2022-11-29T13:45:37.438Z,5.90
2022-11-29T13:50:38.819Z,6.23
2022-11-29T13:55:43.826Z,6.45
2022-11-29T14:00:50.079Z,6.36
2022-11-29T14:05:47.821Z,6.37
2022-11-29T14:10:48.313Z,5.84
2022-11-29T14:15:54.075Z,6.00
2022-11-29T14:20:58.169Z,6.35
2022-11-29T14:26:14.008Z,6.45
2022-11-29T14:31:11.164Z,6.68
2022-11-29T14:36:25.500Z,6.64
2022-11-29T14:41:27.427Z,6.30
2022-11-29T14:46:29.390Z,6.31
2022-11-29T14:51:28.734Z,6.04
2022-11-29T14:56:43.209Z,6.09
2022-11-29T15:01:43.657Z,5.86
2022-11-29T15:06:47.498Z,6.45
2022-11-29T15:11:54.976Z,6.35
2022-11-29T15:16:57.736Z,6.14
2022-11-29T15:22:00.755Z,6.23
2022-11-29T15:26:58.132Z,6.65
2022-11-29T15:31:58.782Z,6.47
2022-11-29T15:36:56.431Z,6.30
2022-11-29T15:41:54.046Z,6.32
2022-11-29T15:46:53.598Z,5.97
2022-11-29T15:51:51.408Z,5.88
2022-11-29T15:56:51.944Z,5.89
2022-11-29T16:01:49.600Z,6.13
2022-11-29T16:06:47.460Z,6.11
2022-11-29T16:11:45.336Z,5.90
2022-11-29T16:16:43.936Z,5.91
2022-11-29T16:21:43.721Z,5.95
2022-11-29T16:26:42.492Z,5.76
2022-11-29T16:31:41.849Z,5.78
2022-11-29T16:36:41.742Z,5.92
2022-11-29T16:41:38.715Z,5.93
2022-11-29T16:46:36.652Z,5.67
2022-11-29T16:51:39.409Z,5.72
2022-11-29T16:56:39.410Z,5.62
2022-11-29T17:01:37.135Z,5.85
2022-11-29T17:06:34.696Z,5.81
2022-11-29T17:11:31.448Z,5.93
2022-11-29T17:16:29.117Z,5.97
2022-11-29T17:21:34.844Z,5.68
2022-11-29T17:26:34.188Z,5.99
2022-11-29T17:31:31.897Z,5.84
2022-11-29T17:36:29.138Z,6.07
2022-11-29T17:41:27.635Z,5.63
2022-11-29T17:46:31.173Z,5.67
2022-11-29T17:51:51.074Z,5.61
2022-11-29T17:56:48.679Z,5.53
2022-11-29T18:01:47.495Z,5.57
2022-11-29T18:06:49.254Z,5.58
2022-11-29T18:11:49.406Z,5.55
2022-11-29T18:16:47.038Z,5.82
2022-11-29T18:21:43.897Z,5.95
2022-11-29T18:26:42.053Z,5.76
2022-11-29T18:31:43.044Z,5.78
2022-11-29T18:36:44.091Z,5.88
2022-11-29T18:41:54.981Z,5.59
2022-11-29T18:46:57.886Z,5.46
2022-11-29T18:52:04.670Z,5.70
2022-11-29T18:57:05.282Z,5.38
2022-11-29T19:02:02.998Z,5.57
2022-11-29T19:06:59.897Z,5.49
2022-11-29T19:11:57.984Z,5.32
2022-11-29T19:17:07.367Z,5.45
2022-11-29T19:22:04.210Z,5.28
2022-11-29T19:27:02.622Z,5.42
2022-11-29T19:32:01.673Z,5.43
2022-11-29T19:36:58.585Z,5.24
2022-11-29T19:41:56.058Z,5.41
2022-11-29T19:47:02.044Z,5.36
2022-11-29T19:52:00.485Z,5.46
2022-11-29T19:56:58.177Z,5.43
2022-11-29T20:01:55.505Z,5.38
2022-11-29T20:06:54.698Z,5.35
2022-11-29T20:11:52.065Z,5.46
2022-11-29T20:16:48.834Z,5.33
2022-11-29T20:21:47.271Z,5.25
2022-11-29T20:26:45.625Z,5.19
2022-11-29T20:31:49.908Z,5.32
2022-11-29T20:37:00.435Z,5.19
2022-11-29T20:42:11.404Z,5.28
2022-11-29T20:47:12.700Z,5.27
2022-11-29T20:52:14.012Z,5.18
2022-11-29T20:57:13.570Z,5.17
2022-11-29T21:02:11.127Z,5.11
2022-11-29T21:07:08.028Z,5.08
2022-11-29T21:12:05.151Z,5.05
2022-11-29T21:17:02.981Z,4.98
2022-11-29T21:22:04.894Z,5.17
2022-11-29T21:27:02.558Z,4.82
2022-11-29T21:32:01.559Z,5.05
2022-11-29T21:37:00.087Z,5.23
2022-11-29T21:41:57.485Z,5.02
2022-11-29T21:46:54.177Z,4.98
2022-11-29T21:51:50.988Z,5.30
2022-11-29T21:56:47.767Z,5.27
2022-11-29T22:01:55.619Z,5.09
2022-11-29T22:06:52.441Z,5.18
2022-11-29T22:11:49.270Z,5.43
2022-11-29T22:16:48.004Z,5.37
2022-11-29T22:21:45.557Z,5.22
2022-11-29T22:26:43.118Z,5.44
2022-11-29T22:31:40.360Z,5.28
2022-11-29T22:36:38.248Z,5.31
2022-11-29T22:41:35.432Z,5.35
2022-11-29T22:46:32.618Z,5.22
2022-11-29T22:51:30.555Z,5.18
2022-11-29T22:56:29.309Z,5.22
2022-11-29T23:01:28.360Z,5.27
2022-11-29T23:06:25.958Z,5.41
2022-11-29T23:11:24.231Z,5.52
2022-11-29T23:16:22.490Z,5.56
2022-11-29T23:21:20.709Z,5.39
2022-11-29T23:26:18.842Z,5.34
2022-11-29T23:31:15.930Z,5.58
2022-11-29T23:36:13.810Z,5.41
2022-11-29T23:41:11.384Z,5.64
2022-11-29T23:46:09.024Z,5.40
2022-11-29T23:51:05.864Z,5.63
2022-11-29T23:56:07.241Z,5.48
